Time;durP1;ratioP1;P1;durP2;ratioP2;P2;SDS_P1;SDS_P2;PMS_P1;PMS_P2;Temp;Humidity;BMP_temperature;BMP_pressure;BME280_temperature;BME280_humidity;BME280_pressure;Samples;Min_cycle;Max_cycle;Signal;HPM_P1;HPM_P2
2022/02/04 00:09:12;;;;;;;6.90;4.43;;;4.30;99.90;;;;;;4934598;28;20091;-49
2022/02/04 00:22:44;;;;;;;7.35;3.92;;;4.30;99.90;;;;;;4934028;28;20492;-50
2022/02/04 00:25:31;;;;;;;8.38;5.43;;;4.20;99.90;;;;;;4937816;28;21709;-49
2022/02/04 00:28:01;;;;;;;62.35;23.08;;;4.20;99.90;;;;;;4934904;28;20042;-49
2022/02/04 00:30:33;;;;;;;21.95;8.13;;;4.30;99.90;;;;;;4934760;28;20035;-49
2022/02/04 00:33:00;;;;;;;28.85;10.77;;;4.30;99.90;;;;;;4917171;28;20109;-49
2022/02/04 00:35:36;;;;;;;66.90;18.33;;;4.10;99.90;;;;;;4935963;28;20086;-49
2022/02/04 00:38:16;;;;;;;104.03;27.80;;;4.20;99.90;;;;;;4933554;28;20136;-49
2022/02/04 00:40:44;;;;;;;98.57;29.77;;;4.10;99.90;;;;;;4934512;28;20031;-49
2022/02/04 00:43:13;;;;;;;193.32;43.95;;;4.20;99.90;;;;;;4934654;28;20122;-49
2022/02/04 00:45:50;;;;;;;74.07;19.85;;;4.20;99.90;;;;;;4934777;28;20082;-49
2022/02/04 00:54:12;;;;;;;17.27;9.65;;;4.20;99.90;;;;;;4945989;28;20078;-49
2022/02/04 00:57:00;;;;;;;71.90;28.27;;;4.20;99.90;;;;;;4933784;28;20039;-49
2022/02/04 01:26:32;;;;;;;13.48;7.15;;;3.90;99.90;;;;;;4934605;28;20042;-49
2022/02/04 01:28:59;;;;;;;12.00;7.53;;;3.90;99.90;;;;;;4933862;28;20035;-50
2022/02/04 01:31:25;;;;;;;53.67;30.92;;;3.90;99.90;;;;;;4931890;28;20035;-49
2022/02/04 01:33:53;;;;;;;14.32;8.60;;;3.90;99.90;;;;;;4932586;28;20481;-50
2022/02/04 01:36:19;;;;;;;13.07;7.03;;;3.90;99.90;;;;;;4933639;28;20114;-50
2022/02/04 01:38:44;;;;;;;8.82;5.88;;;3.90;99.90;;;;;;4930956;28;20444;-50
2022/02/04 01:41:10;;;;;;;6.93;4.85;;;3.80;99.90;;;;;;4932795;28;20519;-50
2022/02/04 01:43:37;;;;;;;8.70;7.40;;;3.70;99.90;;;;;;4930674;28;20043;-49
2022/02/04 01:46:05;;;;;;;12.88;7.05;;;3.50;99.90;;;;;;4934456;28;20071;-50
2022/02/04 01:48:33;;;;;;;8.80;5.93;;;3.60;99.90;;;;;;4933167;28;20047;-51
2022/02/04 01:50:59;;;;;;;7.60;5.30;;;3.60;99.90;;;;;;4933920;28;20527;-50
2022/02/04 01:53:29;;;;;;;6.72;4.53;;;3.60;99.90;;;;;;4933605;28;20031;-49
2022/02/04 01:56:01;;;;;;;7.82;5.07;;;3.50;99.90;;;;;;4933910;28;20042;-50
2022/02/04 01:58:27;;;;;;;8.90;4.60;;;3.30;99.90;;;;;;4933378;28;20067;-49
2022/02/04 02:00:53;;;;;;;6.68;4.30;;;3.40;99.90;;;;;;4931953;28;20050;-50
2022/02/04 02:03:20;;;;;;;7.78;4.82;;;3.30;99.90;;;;;;4916817;28;20105;-49
2022/02/04 02:05:48;;;;;;;6.43;4.20;;;3.30;99.90;;;;;;4933431;28;20027;-50
2022/02/04 02:08:17;;;;;;;8.32;5.75;;;3.10;99.90;;;;;;4931487;28;20078;-50
2022/02/04 02:10:45;;;;;;;8.80;5.78;;;3.10;99.90;;;;;;4931840;28;20060;-49
2022/02/04 02:13:34;;;;;;;7.22;4.85;;;3.20;99.90;;;;;;4931299;28;20038;-50
2022/02/04 02:16:40;;;;;;;11.48;5.40;;;3.20;99.90;;;;;;4933244;28;20043;-50
2022/02/04 02:43:49;;;;;;;10.27;5.85;;;4.10;99.90;;;;;;4938819;28;20042;-50
2022/02/04 02:46:39;;;;;;;7.80;4.97;;;4.10;99.90;;;;;;4936555;28;20039;-51
2022/02/04 02:54:20;;;;;;;8.43;5.38;;;4.10;99.90;;;;;;4936756;28;20086;-49
2022/02/04 02:59:53;;;;;;;11.35;6.10;;;4.20;99.90;;;;;;4937417;28;20062;-49
2022/02/04 03:02:19;;;;;;;10.90;6.97;;;4.10;99.90;;;;;;4936215;28;20130;-50
2022/02/04 03:04:45;;;;;;;13.40;7.45;;;4.20;99.90;;;;;;4937746;28;20119;-49
2022/02/04 03:07:11;;;;;;;9.43;5.88;;;4.20;99.90;;;;;;4937960;28;20035;-49
2022/02/04 03:09:37;;;;;;;8.85;6.30;;;4.10;99.90;;;;;;4936698;28;20070;-50
2022/02/04 03:12:03;;;;;;;9.35;6.30;;;4.10;99.90;;;;;;4935082;28;20035;-49
2022/02/04 03:14:28;;;;;;;9.18;6.72;;;4.10;99.90;;;;;;4937096;28;20031;-49
2022/02/04 03:16:54;;;;;;;11.80;5.57;;;4.00;99.90;;;;;;4936195;28;20284;-50
2022/02/04 03:19:22;;;;;;;9.02;5.70;;;3.90;99.90;;;;;;4936516;28;20039;-50
2022/02/04 03:21:49;;;;;;;10.43;6.47;;;3.80;99.90;;;;;;4935272;28;20027;-49
2022/02/04 03:24:18;;;;;;;9.23;5.20;;;3.90;99.90;;;;;;4935282;28;20078;-49
2022/02/04 03:26:49;;;;;;;7.88;4.90;;;3.70;99.90;;;;;;4935464;28;20050;-50
2022/02/04 03:29:20;;;;;;;7.53;4.53;;;3.60;99.90;;;;;;4936237;28;20477;-49
2022/02/04 03:31:50;;;;;;;9.00;5.43;;;3.50;99.90;;;;;;4932773;28;20546;-50
2022/02/04 03:34:17;;;;;;;9.38;5.80;;;3.40;99.90;;;;;;4935342;28;20039;-50
2022/02/04 03:36:44;;;;;;;9.45;5.40;;;3.40;99.90;;;;;;4935680;28;20034;-49
2022/02/04 03:39:10;;;;;;;14.23;6.55;;;3.30;99.90;;;;;;4949715;28;20035;-49
2022/02/04 03:41:36;;;;;;;13.25;7.68;;;3.40;99.90;;;;;;4933655;28;20102;-49
2022/02/04 03:44:02;;;;;;;10.35;6.90;;;3.40;99.90;;;;;;4949812;28;20035;-50
2022/02/04 03:46:28;;;;;;;9.55;5.80;;;3.40;99.90;;;;;;4933651;28;20078;-51
2022/02/04 03:48:55;;;;;;;15.27;7.18;;;3.50;99.90;;;;;;4934565;28;20519;-49
2022/02/04 03:51:21;;;;;;;12.48;6.38;;;3.50;99.90;;;;;;4921394;28;20156;-49
2022/02/04 03:53:46;;;;;;;13.55;6.55;;;3.50;99.90;;;;;;4934467;28;20544;-50
2022/02/04 03:56:13;;;;;;;12.23;7.18;;;3.50;99.90;;;;;;4934531;28;20058;-50
2022/02/04 03:58:38;;;;;;;8.30;6.05;;;3.60;99.90;;;;;;4932673;28;20031;-49
2022/02/04 04:01:05;;;;;;;12.10;6.72;;;3.60;99.90;;;;;;4934717;28;20078;-50
2022/02/04 04:03:32;;;;;;;12.75;7.05;;;3.60;99.90;;;;;;4935748;28;20027;-50
2022/02/04 04:05:58;;;;;;;10.60;6.53;;;3.60;99.90;;;;;;4936219;28;20106;-50
2022/02/04 04:08:23;;;;;;;10.55;5.38;;;3.60;99.90;;;;;;4935076;28;20028;-50
2022/02/04 04:10:51;;;;;;;8.25;5.53;;;3.60;99.90;;;;;;4934594;28;20039;-50
2022/02/04 04:13:17;;;;;;;12.35;6.43;;;3.60;99.90;;;;;;4935308;28;20170;-50
2022/02/04 04:15:43;;;;;;;14.02;7.00;;;3.60;99.90;;;;;;4934635;28;20078;-50
2022/02/04 04:18:12;;;;;;;12.63;6.80;;;3.60;99.90;;;;;;4932711;28;20448;-49
2022/02/04 04:20:39;;;;;;;13.23;6.82;;;3.60;99.90;;;;;;4932532;28;20590;-50
2022/02/04 04:23:05;;;;;;;11.65;7.00;;;3.60;99.90;;;;;;4940895;28;20027;-50
2022/02/04 04:25:31;;;;;;;13.70;7.43;;;3.60;99.90;;;;;;4932891;28;20469;-50
2022/02/04 04:27:57;;;;;;;12.50;6.38;;;3.60;99.90;;;;;;4935253;28;21111;-50
2022/02/04 04:30:24;;;;;;;12.52;7.00;;;3.60;99.90;;;;;;4934117;28;20087;-49
2022/02/04 04:32:53;;;;;;;8.93;6.90;;;3.50;99.90;;;;;;4934326;28;20409;-50
2022/02/04 04:35:19;;;;;;;15.02;7.82;;;3.50;99.90;;;;;;4933662;28;20039;-50
2022/02/04 05:27:44;;;;;;;15.00;8.57;;;3.20;99.90;;;;;;4932591;28;20093;-50
2022/02/04 05:29:27;;;;;;;13.50;8.07;;;3.10;99.90;;;;;;4933401;28;20030;-50
2022/02/04 05:31:53;;;;;;;16.13;7.88;;;3.10;99.90;;;;;;4933035;28;20039;-49
2022/02/04 05:34:20;;;;;;;11.88;6.47;;;3.10;99.90;;;;;;4933960;28;20031;-50
2022/02/04 05:36:50;;;;;;;11.93;6.95;;;3.00;99.90;;;;;;4935274;28;20024;-49
2022/02/04 05:39:22;;;;;;;13.20;6.78;;;3.00;99.90;;;;;;4947766;29;20059;-50
2022/02/04 05:41:49;;;;;;;14.60;7.93;;;2.90;99.90;;;;;;4946582;28;20046;-49
2022/02/04 05:44:16;;;;;;;14.45;8.75;;;2.90;99.90;;;;;;4949133;29;20436;-50
2022/02/04 05:49:15;;;;;;;48.00;31.90;;;2.90;99.90;;;;;;4932305;28;20051;-50
2022/02/04 05:52:27;;;;;;;16.85;11.43;;;2.90;99.90;;;;;;4937105;28;20035;-50
2022/02/04 05:57:20;;;;;;;20.45;10.20;;;2.90;99.90;;;;;;4933862;28;20023;-50
2022/02/04 06:02:33;;;;;;;21.48;10.60;;;2.90;99.90;;;;;;4933318;28;20682;-50
2022/02/04 06:05:10;;;;;;;25.17;12.77;;;2.90;99.90;;;;;;4939278;28;20158;-51
2022/02/04 06:08:11;;;;;;;22.92;11.32;;;2.90;99.90;;;;;;4940142;28;20070;-51
2022/02/04 06:10:52;;;;;;;23.02;10.98;;;2.90;99.90;;;;;;4939861;28;20067;-51
2022/02/04 06:23:54;;;;;;;13.05;7.90;;;2.90;99.90;;;;;;4938560;28;20089;-50
2022/02/04 06:26:20;;;;;;;13.65;7.32;;;2.90;99.90;;;;;;4922133;28;20433;-49
2022/02/04 06:28:46;;;;;;;12.90;7.47;;;2.90;99.90;;;;;;4937545;28;20207;-49
2022/02/04 06:31:12;;;;;;;14.35;7.50;;;2.90;99.90;;;;;;4935572;28;20046;-49
2022/02/04 06:33:39;;;;;;;9.18;6.70;;;3.00;99.90;;;;;;4939273;28;20669;-49
2022/02/04 06:36:05;;;;;;;14.75;7.88;;;3.00;99.90;;;;;;4938204;28;22276;-50
2022/02/04 06:38:31;;;;;;;13.70;6.35;;;2.90;99.90;;;;;;4938491;28;20523;-50
2022/02/04 06:40:57;;;;;;;15.23;7.35;;;3.00;99.90;;;;;;4939067;28;20426;-50
2022/02/04 06:43:23;;;;;;;8.60;6.55;;;3.00;99.90;;;;;;4922373;28;20130;-50
2022/02/04 06:45:48;;;;;;;11.57;6.93;;;3.00;99.90;;;;;;4941472;28;20039;-50
2022/02/04 06:48:14;;;;;;;12.70;7.20;;;3.00;99.90;;;;;;4938530;28;20031;-50
2022/02/04 06:50:41;;;;;;;10.38;6.78;;;3.00;99.90;;;;;;4938893;28;20054;-49
2022/02/04 06:53:08;;;;;;;12.23;6.47;;;3.10;99.90;;;;;;4938080;28;20117;-50
2022/02/04 06:55:34;;;;;;;12.38;6.78;;;3.10;99.90;;;;;;4937448;28;20031;-49
2022/02/04 06:58:01;;;;;;;11.98;6.97;;;3.10;99.90;;;;;;4937538;28;20024;-49
2022/02/04 07:00:28;;;;;;;14.57;7.90;;;3.10;99.90;;;;;;4934454;28;20586;-50
2022/02/04 07:02:54;;;;;;;14.95;7.00;;;3.20;99.90;;;;;;4943136;28;20450;-50
2022/02/04 07:05:21;;;;;;;9.55;6.38;;;3.10;99.90;;;;;;4936295;28;20114;-51
2022/02/04 07:08:01;;;;;;;10.88;6.80;;;3.20;99.90;;;;;;4939693;28;20069;-50
2022/02/04 07:10:36;;;;;;;13.23;6.97;;;3.20;99.90;;;;;;4937975;28;20038;-50
2022/02/04 07:13:13;;;;;;;12.40;7.13;;;3.20;99.90;;;;;;4937947;28;20035;-50
2022/02/04 07:15:49;;;;;;;8.77;6.35;;;3.20;99.90;;;;;;4934986;28;20019;-50
2022/02/04 07:21:00;;;;;;;13.93;7.70;;;3.30;99.90;;;;;;4934583;28;20563;-49
2022/02/04 07:23:25;;;;;;;11.02;6.80;;;3.30;99.90;;;;;;4938163;28;20036;-52
2022/02/04 07:25:51;;;;;;;15.77;7.25;;;3.40;99.90;;;;;;4934209;28;21955;-51
2022/02/04 07:28:17;;;;;;;12.82;7.20;;;3.40;99.90;;;;;;4935302;28;20486;-50
2022/02/04 07:30:44;;;;;;;10.98;6.85;;;3.40;99.90;;;;;;4931373;28;20039;-50
2022/02/04 07:33:20;;;;;;;12.75;8.20;;;3.40;99.90;;;;;;4934101;28;20074;-50
2022/02/04 07:41:18;;;;;;;14.82;8.23;;;3.50;99.90;;;;;;4924989;28;20580;-51
2022/02/04 07:43:44;;;;;;;14.70;8.68;;;3.50;99.90;;;;;;4934781;28;20031;-50
2022/02/04 07:46:12;;;;;;;15.68;7.88;;;3.60;99.90;;;;;;4935757;28;20393;-50
2022/02/04 07:48:39;;;;;;;11.80;6.78;;;3.50;99.90;;;;;;4939978;28;20051;-50
2022/02/04 07:51:04;;;;;;;15.82;8.63;;;3.60;99.90;;;;;;4934287;28;20085;-50
2022/02/04 07:53:35;;;;;;;13.95;8.57;;;3.60;99.90;;;;;;4940631;28;20035;-50
2022/02/04 07:56:02;;;;;;;17.30;8.10;;;3.60;99.90;;;;;;4932568;28;20125;-50
2022/02/04 07:58:28;;;;;;;12.95;8.13;;;3.60;99.90;;;;;;4936295;28;20432;-50
2022/02/04 08:00:54;;;;;;;14.48;7.88;;;3.60;99.90;;;;;;4935391;28;20043;-50
2022/02/04 08:05:48;;;;;;;14.38;7.03;;;3.70;99.90;;;;;;4936018;28;20023;-50
2022/02/04 08:08:20;;;;;;;15.98;8.77;;;3.80;99.90;;;;;;4934966;28;20685;-49
2022/02/04 08:19:11;;;;;;;14.25;7.72;;;3.90;99.90;;;;;;4944735;28;20408;-49
2022/02/04 08:29:12;;;;;;;11.27;7.00;;;4.10;99.90;;;;;;4934055;28;20454;-50
2022/02/04 08:37:03;;;;;;;10.25;6.60;;;4.30;99.90;;;;;;4937361;28;20077;-51
2022/02/04 08:55:47;;;;;;;10.25;6.35;;;4.60;99.90;;;;;;4935690;28;20106;-50
2022/02/04 09:01:04;;;;;;;11.00;6.03;;;4.70;99.90;;;;;;4933995;28;20401;-50
2022/02/04 09:03:41;;;;;;;12.27;6.55;;;4.70;99.90;;;;;;4934572;28;20019;-50
2022/02/04 09:06:11;;;;;;;10.07;5.97;;;4.70;99.90;;;;;;4934234;28;20039;-49
2022/02/04 09:08:42;;;;;;;10.82;6.80;;;4.70;99.90;;;;;;4933417;28;20083;-50
2022/02/04 09:11:13;;;;;;;10.65;6.45;;;4.80;99.90;;;;;;4920077;28;20046;-50
2022/02/04 09:19:13;;;;;;;11.02;6.57;;;4.80;99.90;;;;;;4939623;28;20638;-50
2022/02/04 09:24:11;;;;;;;12.55;7.00;;;4.90;99.90;;;;;;4932921;28;20126;-50
2022/02/04 09:26:38;;;;;;;9.63;6.55;;;5.00;99.90;;;;;;4933466;28;20034;-50
2022/02/04 09:29:04;;;;;;;11.35;6.80;;;5.00;99.90;;;;;;4932918;28;20059;-50
2022/02/04 09:31:30;;;;;;;12.35;6.85;;;5.00;99.90;;;;;;4930997;28;20162;-52
2022/02/04 09:33:56;;;;;;;10.50;6.88;;;5.10;99.90;;;;;;4931153;28;20035;-49
2022/02/04 09:36:21;;;;;;;11.55;7.30;;;5.10;99.90;;;;;;4945745;28;20042;-50
2022/02/04 09:38:47;;;;;;;16.20;6.97;;;5.20;99.90;;;;;;4930576;28;20374;-49
2022/02/04 09:41:13;;;;;;;13.38;6.93;;;5.20;99.90;;;;;;4933345;28;20647;-50
2022/02/04 09:43:39;;;;;;;11.70;6.88;;;5.30;99.90;;;;;;4931079;28;20032;-50
2022/02/04 09:46:07;;;;;;;14.18;7.43;;;5.30;99.90;;;;;;4932552;28;20028;-51
2022/02/04 09:48:33;;;;;;;11.90;7.13;;;5.30;99.90;;;;;;4913173;28;20066;-50
2022/02/04 09:51:00;;;;;;;12.98;6.78;;;5.40;99.90;;;;;;4932140;28;20066;-50
2022/02/04 10:18:07;;;;;;;10.35;6.00;;;5.60;99.90;;;;;;4931593;28;20027;-50
2022/02/04 10:20:33;;;;;;;12.10;6.80;;;5.70;99.90;;;;;;4933948;28;20484;-50
2022/02/04 10:23:00;;;;;;;8.68;5.82;;;5.70;99.90;;;;;;4932317;28;20036;-50
2022/02/04 10:25:38;;;;;;;10.05;6.10;;;5.90;99.90;;;;;;4933748;28;20032;-50
2022/02/04 10:28:22;;;;;;;11.82;6.13;;;6.00;99.90;;;;;;4933972;28;20439;-50
2022/02/04 10:31:11;;;;;;;9.65;5.07;;;6.00;99.90;;;;;;4932587;28;20067;-50
2022/02/04 10:34:04;;;;;;;11.45;5.55;;;6.10;99.90;;;;;;4932382;28;20031;-50
2022/02/04 10:36:46;;;;;;;7.88;5.28;;;6.10;99.90;;;;;;4930186;28;20043;-50
2022/02/04 10:42:16;;;;;;;8.13;4.57;;;6.20;99.90;;;;;;4933032;28;20035;-50
2022/02/04 10:45:18;;;;;;;10.23;5.57;;;6.20;99.90;;;;;;4932181;28;20063;-50
2022/02/04 10:48:00;;;;;;;9.38;5.05;;;6.20;99.90;;;;;;4933297;28;20050;-50
2022/02/04 10:59:12;;;;;;;11.45;5.68;;;6.40;99.90;;;;;;4937665;28;20027;-50
2022/02/04 11:04:40;;;;;;;7.97;4.85;;;6.30;99.90;;;;;;4936202;28;20404;-50
2022/02/04 11:09:57;;;;;;;7.70;3.92;;;6.30;99.90;;;;;;4934126;28;20043;-50
2022/02/04 11:35:08;;;;;;;8.23;3.40;;;7.00;99.90;;;;;;4934657;28;20028;-49
2022/02/04 11:55:21;;;;;;;4.97;2.53;;;6.70;99.90;;;;;;4944376;28;20575;-50
2022/02/04 11:57:59;;;;;;;3.58;2.40;;;6.60;99.90;;;;;;4931709;28;20066;-49
2022/02/04 12:00:39;;;;;;;3.50;2.40;;;6.60;99.90;;;;;;4934826;28;20563;-49
2022/02/04 12:03:29;;;;;;;3.95;2.35;;;6.60;99.90;;;;;;4935469;28;20091;-49
2022/02/04 12:05:55;;;;;;;3.95;2.03;;;6.50;99.90;;;;;;4934693;28;22581;-50
2022/02/04 12:08:24;;;;;;;4.05;2.53;;;6.60;99.90;;;;;;4934817;28;20043;-49
2022/02/04 12:10:51;;;;;;;;;;;6.60;99.90;;;;;;4935403;28;20042;-49
2022/02/04 12:13:19;;;;;;;3.17;2.42;;;6.50;99.90;;;;;;4934300;28;20101;-50
2022/02/04 12:16:05;;;;;;;4.88;3.22;;;6.50;99.90;;;;;;4936703;28;20035;-50
2022/02/04 12:18:34;;;;;;;4.68;3.03;;;6.50;99.90;;;;;;4936781;28;20441;-50
2022/02/04 12:21:02;;;;;;;5.60;3.85;;;6.50;99.90;;;;;;4936099;28;20788;-52
2022/02/04 12:25:56;;;;;;;6.00;3.22;;;6.40;99.90;;;;;;4936465;28;20404;-50
2022/02/04 12:28:37;;;;;;;;;;;6.50;99.90;;;;;;4936526;28;20047;-50
2022/02/04 12:31:11;;;;;;;5.15;3.45;;;6.50;99.90;;;;;;4934954;28;20273;-50
2022/02/04 12:33:53;;;;;;;7.88;4.00;;;6.50;99.90;;;;;;4934899;28;20575;-50
2022/02/04 12:36:32;;;;;;;8.63;3.65;;;6.50;99.90;;;;;;4933747;28;20114;-50
2022/02/04 12:39:02;;;;;;;;;;;6.50;99.90;;;;;;4922173;28;20166;-50
2022/02/04 12:41:37;;;;;;;7.03;4.07;;;6.50;99.90;;;;;;4966365;28;19914;-50
2022/02/04 12:44:10;;;;;;;7.63;4.30;;;6.50;99.90;;;;;;4932999;28;20055;-50
2022/02/04 12:46:40;;;;;;;7.57;4.50;;;6.50;99.90;;;;;;4935353;28;20035;-50
2022/02/04 12:49:15;;;;;;;7.72;4.78;;;6.50;99.90;;;;;;4935197;28;20131;-50
2022/02/04 12:54:12;;;;;;;7.40;4.15;;;6.50;99.90;;;;;;4936729;28;20389;-50
2022/02/04 12:56:43;;;;;;;7.97;4.15;;;6.50;99.90;;;;;;4937482;28;20019;-49
2022/02/04 13:07:44;;;;;;;8.82;4.43;;;6.50;99.90;;;;;;4936506;28;20102;-50
2022/02/04 13:10:19;;;;;;;6.38;4.00;;;6.40;99.90;;;;;;4935185;28;20626;-50
2022/02/04 13:12:51;;;;;;;7.15;3.88;;;6.50;99.90;;;;;;4932625;28;20054;-50
2022/02/04 13:15:17;;;;;;;6.28;4.10;;;6.40;99.90;;;;;;4932614;28;20063;-50
2022/02/04 13:17:44;;;;;;;6.13;3.92;;;6.40;99.90;;;;;;4933776;28;20074;-50
2022/02/04 13:20:11;;;;;;;9.38;4.32;;;6.40;99.90;;;;;;4933776;28;20110;-50
2022/02/04 13:22:39;;;;;;;6.25;4.43;;;6.40;99.90;;;;;;4919441;28;20032;-50
2022/02/04 13:25:17;;;;;;;6.55;3.65;;;6.50;99.90;;;;;;4932387;28;20082;-50
2022/02/04 13:28:06;;;;;;;6.10;4.18;;;6.50;99.90;;;;;;4931051;28;20031;-50
2022/02/04 13:30:33;;;;;;;;;;;6.50;99.90;;;;;;4929553;28;20039;-50
2022/02/04 13:33:00;;;;;;;6.50;4.18;;;6.50;99.90;;;;;;4925785;28;19966;-50
2022/02/04 13:35:38;;;;;;;5.15;3.35;;;6.50;99.90;;;;;;4934327;28;20496;-50
2022/02/04 13:38:16;;;;;;;5.07;3.55;;;6.50;99.90;;;;;;4934268;28;20492;-49
2022/02/04 13:41:07;;;;;;;10.48;4.07;;;6.50;99.90;;;;;;4931427;28;20436;-50
2022/02/04 13:43:40;;;;;;;4.13;3.13;;;6.50;99.90;;;;;;4946594;28;20031;-50
2022/02/04 13:46:21;;;;;;;5.60;3.25;;;6.50;99.90;;;;;;4935887;28;20038;-50
2022/02/04 13:50:00;;;;;;;5.32;3.25;;;6.50;99.90;;;;;;4931272;28;20496;-50
2022/02/04 13:52:03;;;;;;;5.90;3.63;;;6.50;99.90;;;;;;4929999;28;20060;-50
2022/02/04 13:57:21;;;;;;;3.63;3.00;;;6.60;99.90;;;;;;4934231;28;20020;-50
2022/02/04 14:00:26;;;;;;;4.95;2.80;;;6.60;99.90;;;;;;4933646;28;20063;-50
2022/02/04 14:02:56;;;;;;;6.50;3.05;;;6.50;99.90;;;;;;4929695;28;20051;-50
2022/02/04 14:05:29;;;;;;;5.82;3.15;;;6.50;99.90;;;;;;4915014;28;20611;-50
2022/02/04 14:08:06;;;;;;;4.38;2.60;;;6.50;99.90;;;;;;4932157;28;20082;-50
2022/02/04 14:10:36;;;;;;;4.32;3.08;;;6.50;99.90;;;;;;4931101;28;20042;-50
2022/02/04 14:13:08;;;;;;;4.47;3.10;;;6.50;99.90;;;;;;4932066;28;20055;-50
2022/02/04 14:15:36;;;;;;;4.38;3.35;;;6.50;99.90;;;;;;4932738;28;22095;-50
2022/02/04 14:18:09;;;;;;;3.08;2.38;;;6.50;99.90;;;;;;4915647;29;20027;-50
2022/02/04 14:20:40;;;;;;;6.78;3.20;;;6.40;99.90;;;;;;4946097;28;20102;-50
2022/02/04 14:23:07;;;;;;;3.40;2.65;;;6.50;99.90;;;;;;4932263;28;20131;-50
2022/02/04 14:25:52;;;;;;;3.55;3.00;;;6.40;99.90;;;;;;4935035;28;20023;-50
2022/02/04 14:28:24;;;;;;;4.80;2.90;;;6.40;99.90;;;;;;4936352;28;20093;-50
2022/02/04 14:30:59;;;;;;;3.50;2.50;;;6.40;99.90;;;;;;4932600;28;20054;-50
2022/02/04 15:02:59;;;;;;;3.20;2.45;;;6.40;99.90;;;;;;4936262;28;20047;-49
2022/02/04 15:05:31;;;;;;;3.42;2.20;;;6.40;99.90;;;;;;4935927;28;20038;-50
2022/02/04 15:08:04;;;;;;;3.97;2.00;;;6.40;99.90;;;;;;4949831;28;20042;-50
2022/02/04 15:10:32;;;;;;;2.80;2.08;;;6.40;99.90;;;;;;4950924;28;20035;-50
2022/02/04 15:13:00;;;;;;;2.13;1.92;;;6.40;99.90;;;;;;4934928;28;20031;-50
2022/02/04 15:15:26;;;;;;;3.67;2.13;;;6.50;99.90;;;;;;4933639;29;20459;-50
2022/02/04 15:17:52;;;;;;;3.55;1.98;;;6.40;99.90;;;;;;4935742;28;20091;-49
2022/02/04 15:20:19;;;;;;;4.82;2.20;;;6.40;99.90;;;;;;4935626;28;20035;-50
2022/02/04 15:22:45;;;;;;;2.78;2.00;;;6.50;99.90;;;;;;4935844;28;20050;-49
2022/02/04 15:25:18;;;;;;;3.30;2.40;;;6.40;99.90;;;;;;4948902;28;20042;-50
2022/02/04 15:27:55;;;;;;;3.67;2.30;;;6.40;99.90;;;;;;4935776;29;20093;-50
2022/02/04 15:30:28;;;;;;;3.65;2.15;;;6.40;99.90;;;;;;4934530;28;20477;-49
2022/02/04 15:32:55;;;;;;;2.75;1.90;;;6.40;99.90;;;;;;4934296;28;20583;-51
2022/02/04 15:35:21;;;;;;;3.15;2.15;;;6.30;99.90;;;;;;4934694;28;21199;-49
2022/02/04 15:37:47;;;;;;;2.03;1.83;;;6.30;99.90;;;;;;4935487;28;20051;-50
2022/02/04 15:40:13;;;;;;;3.45;2.17;;;6.20;99.90;;;;;;4936346;28;20033;-49
2022/02/04 15:42:44;;;;;;;2.33;1.90;;;6.20;99.90;;;;;;4935724;28;20031;-50
2022/02/04 15:47:59;;;;;;;3.53;1.92;;;6.20;99.90;;;;;;4935152;28;20042;-49
2022/02/04 15:53:00;;;;;;;2.00;1.80;;;6.10;99.90;;;;;;4936467;28;20469;-50
2022/02/04 15:55:55;;;;;;;2.97;2.10;;;6.10;99.90;;;;;;4935364;28;20044;-49
2022/02/04 16:05:44;;;;;;;3.28;2.10;;;6.10;99.90;;;;;;4939136;28;20020;-52
2022/02/04 16:08:14;;;;;;;2.13;1.40;;;6.00;99.90;;;;;;4934199;28;20042;-50
2022/02/04 16:10:56;;;;;;;3.83;2.20;;;6.00;99.90;;;;;;4935139;28;20042;-50
2022/02/04 16:13:42;;;;;;;1.58;1.48;;;6.00;99.90;;;;;;4934893;28;20037;-50
2022/02/04 16:16:22;;;;;;;2.20;1.90;;;6.00;99.90;;;;;;4934470;28;20062;-50
2022/02/04 16:19:06;;;;;;;1.75;1.65;;;5.90;99.90;;;;;;4934515;28;20028;-50
2022/02/04 16:21:42;;;;;;;1.73;1.63;;;5.90;99.90;;;;;;4950298;28;20031;-50
2022/02/04 16:27:11;;;;;;;1.77;1.40;;;5.90;99.90;;;;;;4934400;28;20027;-50
2022/02/04 16:29:39;;;;;;;4.60;1.90;;;5.90;99.90;;;;;;4935018;28;20043;-50
2022/02/04 16:32:06;;;;;;;2.65;1.70;;;5.90;99.90;;;;;;4933586;28;20027;-50
2022/02/04 16:34:32;;;;;;;2.10;1.77;;;5.90;99.90;;;;;;4918344;28;20042;-50
2022/02/04 16:37:04;;;;;;;2.08;1.70;;;5.90;99.90;;;;;;4934203;28;20039;-52
2022/02/04 16:39:31;;;;;;;1.60;1.35;;;5.90;99.90;;;;;;4933568;28;20040;-50
2022/02/04 16:42:10;;;;;;;2.05;1.63;;;5.80;99.90;;;;;;4933520;28;20039;-50
2022/02/04 16:44:37;;;;;;;1.90;1.77;;;5.80;99.90;;;;;;4936052;28;20643;-52
2022/02/04 16:47:04;;;;;;;2.85;2.03;;;5.80;99.90;;;;;;4939754;28;20122;-50
2022/02/04 16:49:30;;;;;;;2.92;2.30;;;5.80;99.90;;;;;;4934111;28;20488;-51
2022/02/04 16:51:56;;;;;;;2.13;1.85;;;5.80;99.90;;;;;;4935002;28;20050;-50
2022/02/04 16:54:25;;;;;;;3.92;2.28;;;5.80;99.90;;;;;;4934058;28;20039;-50
2022/02/04 16:56:51;;;;;;;3.05;2.50;;;5.80;99.90;;;;;;4946800;28;20382;-49
2022/02/04 16:59:18;;;;;;;3.17;2.17;;;5.80;99.90;;;;;;4933529;28;20449;-52
2022/02/04 17:01:44;;;;;;;3.67;2.58;;;5.80;99.90;;;;;;4945426;28;20504;-50
2022/02/04 17:04:12;;;;;;;3.15;2.25;;;5.80;99.90;;;;;;4935267;28;20042;-50
2022/02/04 17:06:41;;;;;;;2.70;2.35;;;5.80;99.90;;;;;;4936666;28;20070;-52
2022/02/04 17:11:45;;;;;;;4.47;2.58;;;5.70;99.90;;;;;;4938628;28;20024;-49
2022/02/04 17:14:13;;;;;;;2.47;1.90;;;5.70;99.90;;;;;;4933768;28;20564;-50
2022/02/04 17:16:42;;;;;;;2.72;2.05;;;5.70;99.90;;;;;;4933425;28;20023;-50
2022/02/04 17:19:22;;;;;;;3.15;2.00;;;5.70;99.90;;;;;;4933696;28;20045;-50
2022/02/04 17:21:49;;;;;;;4.07;2.10;;;5.70;99.90;;;;;;4933695;28;20122;-50
2022/02/04 17:24:17;;;;;;;3.47;2.30;;;5.70;99.90;;;;;;4933303;28;20035;-50
2022/02/04 17:26:44;;;;;;;2.50;2.30;;;5.70;99.90;;;;;;4934140;28;20038;-51
2022/02/04 17:29:11;;;;;;;2.80;1.67;;;5.70;99.90;;;;;;4936548;28;20035;-50
2022/02/04 17:31:38;;;;;;;3.20;2.28;;;5.70;99.90;;;;;;4932441;28;20122;-50
2022/02/04 17:34:06;;;;;;;1.98;1.55;;;5.70;99.90;;;;;;4933010;28;20039;-49
2022/02/04 17:36:36;;;;;;;2.22;1.75;;;5.70;99.90;;;;;;4948154;28;21141;-49
2022/02/04 17:39:20;;;;;;;1.95;1.85;;;5.70;99.90;;;;;;4932148;28;20203;-52
2022/02/04 17:41:48;;;;;;;2.05;1.92;;;5.80;99.90;;;;;;4936918;28;20038;-49
2022/02/04 17:44:16;;;;;;;2.70;2.00;;;5.70;99.90;;;;;;4931519;28;20031;-49
2022/02/04 17:46:44;;;;;;;2.90;1.88;;;5.70;99.90;;;;;;4934092;28;20035;-50
2022/02/04 17:49:19;;;;;;;2.38;2.05;;;5.70;99.90;;;;;;4935979;28;20047;-50
2022/02/04 17:54:15;;;;;;;2.47;2.05;;;5.70;99.90;;;;;;4932873;28;20138;-50
2022/02/04 17:57:34;;;;;;;2.00;1.90;;;5.70;99.90;;;;;;4933990;28;20378;-50
2022/02/04 18:09:33;;;;;;;1.90;1.80;;;5.80;99.90;;;;;;4933337;28;20118;-49
2022/02/04 18:12:00;;;;;;;2.40;1.65;;;5.80;99.90;;;;;;4931343;28;20051;-49
2022/02/04 18:14:25;;;;;;;1.73;1.60;;;5.80;99.90;;;;;;4932121;28;20058;-50
2022/02/04 18:16:51;;;;;;;2.95;1.67;;;5.80;99.90;;;;;;4931481;28;20932;-50
2022/02/04 18:19:17;;;;;;;1.70;1.60;;;5.80;99.90;;;;;;4933699;28;20126;-49
2022/02/04 18:21:43;;;;;;;1.67;1.50;;;5.80;99.90;;;;;;4932735;28;20027;-51
2022/02/04 18:24:09;;;;;;;2.28;1.60;;;5.80;99.90;;;;;;4930743;28;20476;-49
2022/02/04 18:26:35;;;;;;;1.65;1.30;;;5.80;99.90;;;;;;4933721;28;20485;-50
2022/02/04 18:29:01;;;;;;;2.97;1.95;;;5.80;99.90;;;;;;4932481;28;20027;-49
2022/02/04 18:31:28;;;;;;;1.80;1.70;;;5.80;99.90;;;;;;4931871;28;20051;-50
2022/02/04 18:33:55;;;;;;;1.52;1.40;;;5.70;99.90;;;;;;4935207;28;20035;-50
2022/02/04 18:36:21;;;;;;;1.60;1.50;;;5.70;99.90;;;;;;4934014;28;20040;-49
2022/02/04 18:41:50;;;;;;;1.45;1.35;;;5.70;99.90;;;;;;4931177;28;20730;-50
2022/02/04 18:44:06;;;;;;;1.48;1.38;;;5.70;99.90;;;;;;4928577;28;20066;-50
2022/02/04 18:46:51;;;;;;;1.95;1.60;;;5.70;99.90;;;;;;4931606;28;20042;-49
2022/02/04 18:51:57;;;;;;;1.42;1.27;;;5.70;99.90;;;;;;4933402;28;20027;-50
2022/02/04 18:59:35;;;;;;;1.67;1.58;;;5.70;99.90;;;;;;4932816;28;20067;-49
2022/02/04 19:02:00;;;;;;;1.25;1.25;;;5.70;99.90;;;;;;4930610;28;20381;-50
2022/02/04 19:04:35;;;;;;;1.40;1.30;;;5.70;99.90;;;;;;4932282;28;20118;-50
2022/02/04 19:07:08;;;;;;;1.85;1.40;;;5.60;99.90;;;;;;4931868;28;20111;-50
2022/02/04 19:09:36;;;;;;;1.10;1.10;;;5.60;99.90;;;;;;4931924;28;20035;-50
2022/02/04 19:12:09;;;;;;;1.05;1.02;;;5.60;99.90;;;;;;4936269;28;20046;-51
2022/02/04 19:17:09;;;;;;;1.50;1.02;;;5.60;99.90;;;;;;4935887;28;20034;-50
2022/02/04 19:24:42;;;;;;;1.10;1.10;;;5.60;99.90;;;;;;4936312;28;20038;-51
2022/02/04 19:27:07;;;;;;;1.38;1.27;;;5.60;99.90;;;;;;4938397;28;20480;-50
2022/02/04 19:29:36;;;;;;;1.30;1.10;;;5.50;99.90;;;;;;4936100;28;20070;-51
2022/02/04 19:32:04;;;;;;;1.00;1.00;;;5.50;99.90;;;;;;4933477;28;20090;-50
2022/02/04 19:34:30;;;;;;;1.20;1.20;;;5.50;99.90;;;;;;4935909;28;20032;-51
2022/02/04 19:36:57;;;;;;;0.80;0.80;;;5.60;99.90;;;;;;4936019;28;20038;-51
2022/02/04 19:39:24;;;;;;;0.90;0.90;;;5.50;99.90;;;;;;4938026;28;20567;-54